Details From HTZA - ZANZIBAR
To HTDA - MWALIMU JULIUS K NYERERE INTL
Flight Number -
Tags generated
Created
Modified
Stats Distance 41 nm / 76 km
Max Altitude 200 ft / 61 m
Waypoints 3
Social Downloads 2
Likes 0
Share VATSIM

Download

Looking for another format? Having issues loading an existing format? Contact us
Advertisement - Login to hide

Notes

Basic altitude profile: - Ascent Rate: 280ft/min - Ascent Speed: 200kts - Cruise Altitude: 1000ft - Cruise Speed: 350kts - Descent Rate: 1500ft/min - Descent Speed: 200kts Options: - Use NATs: yes - Use PACOTS: yes - Use low airways: yes - Use high airways: yes

Route

HTZA DV HTDA

ID Type Via Altitude Latitude Longitude Leg Dist Tot Dist Heading (true) Name
O HTZA APT - 0 ft / 0 m -6.22202˚ 39.22488˚ - 0 nm - ZANZIBAR
DV VOR - 200 ft / 61 m -6.88865˚ 39.19271˚ 40 nm 40 nm 183° / 183° DAR ES SALAAM VOR-DME
O HTDA APT - 0 ft / 0 m -6.87505˚ 39.20426˚ 1 nm 41 nm 40° / 40° MWALIMU JULIUS K NYERERE INTL

Altitude Profile

Advertisement - Login to hide

HTZA

Details ICAO HTZA (ZNZ)
Name ZANZIBAR
Region Tanzania
Timezone Africa/Dar_es_Salaam (UTC+3.0)
Stats Elevation 54 ft / 16 m (AMSL)
Location -6.222024° 39.224885°
Runways 1
Magnetic Variation 1.808° W

METAR

HTZA 170600Z 32010KT 9999 SCT020 29/24 Q1013 NOSIG

Decode

TAF

TAF HTZA 170500Z 1706/1806 36010KT 9999 BKN018 BECMG 1711/1713 06010KT SCT022 BECMG 1720/1722 00000KT

Decode

Departure Runways

ID Width Length Bearing (true) Bearing (mag) Surface Threshold Offset Overrun Length
18 148 ft / 45 m 8,100 ft / 2,469 m 174.27° 176.08° Asphalt 0 ft / 0 m 0 ft / 0 m
36 148 ft / 45 m 8,100 ft / 2,469 m 354.27° 356.08° Asphalt 0 ft / 0 m 0 ft / 0 m

HTDA

Details ICAO HTDA (DAR)
Name MWALIMU JULIUS K NYERERE INTL
Region Tanzania
Timezone Africa/Dar_es_Salaam (UTC+3.0)
Stats Elevation 182 ft / 55 m (AMSL)
Location -6.875048° 39.204265°
Runways 2
Magnetic Variation 2.128° W

METAR

HTDA 170600Z 33012KT 9999 BKN018 29/25 Q1013 NOSIG

Decode

TAF

TAF HTDA 170500Z 1706/1812 33010KT 9999 SCT016 TEMPO 1709/1712 RA BKN019 FEW020CB

Decode

Destination Runways

ID Width Length Bearing (true) Bearing (mag) Surface Threshold Offset Overrun Length
05 151 ft / 46 m 9,868 ft / 3,008 m 44.94° 47.07° Asphalt 0 ft / 0 m 197 ft / 60 m
14 98 ft / 30 m 3,303 ft / 1,007 m 135.15° 137.28° Asphalt 0 ft / 0 m 0 ft / 0 m
23 151 ft / 46 m 9,868 ft / 3,008 m 224.94° 227.07° Asphalt 0 ft / 0 m 197 ft / 60 m
32 98 ft / 30 m 3,303 ft / 1,007 m 315.15° 317.28° Asphalt 0 ft / 0 m 299 ft / 91 m

Approach Navaids

Runway Type Ident Frequency Range Bearing (true) Bearing (mag) Slope Elevation
05 Localiser DL 110.50 MHz 18 nm / 33 km 44.91° 47.04° - 54 ft / 16 m (AMSL)
05 Glidescope DL 110.50 MHz 10 nm / 19 km 44.94° 47.07° 3.00° 54 ft / 16 m (AMSL)

Popular Alternatives